createdAt,value
2018-08-16T00:00:38.402Z,12.07
2018-08-16T00:03:06.601Z,11.93
2018-08-16T00:05:34.642Z,12.33
2018-08-16T00:08:02.705Z,13.77
2018-08-16T00:10:30.748Z,12.53
2018-08-16T00:12:58.786Z,14.60
2018-08-16T00:15:26.821Z,14.50
2018-08-16T00:17:54.869Z,11.53
2018-08-16T00:20:22.998Z,14.67
2018-08-16T00:22:51.021Z,20.30
2018-08-16T00:25:19.057Z,14.37
2018-08-16T00:27:47.097Z,10.27
2018-08-16T00:30:16.447Z,12.97
2018-08-16T00:32:44.829Z,10.50
2018-08-16T00:35:12.861Z,15.73
2018-08-16T00:37:41.141Z,11.23
2018-08-16T00:40:11.077Z,14.93
2018-08-16T00:42:39.131Z,10.27
2018-08-16T00:45:08.193Z,17.47
2018-08-16T00:47:36.370Z,15.60
2018-08-16T00:50:06.469Z,17.13
2018-08-16T00:52:35.129Z,10.70
2018-08-16T00:55:03.534Z,14.27
2018-08-16T00:57:31.573Z,13.97
2018-08-16T00:59:59.617Z,13.87
2018-08-16T01:02:27.646Z,12.20
2018-08-16T01:04:55.689Z,11.23
2018-08-16T01:07:23.941Z,13.03
2018-08-16T01:09:51.986Z,14.93
2018-08-16T01:12:20.633Z,14.30
2018-08-16T01:14:48.677Z,10.73
2018-08-16T01:17:16.769Z,12.77
2018-08-16T01:19:44.778Z,12.90
2018-08-16T01:22:12.849Z,13.10
2018-08-16T01:24:40.917Z,14.53
2018-08-16T01:27:08.961Z,12.00
2018-08-16T01:29:37.006Z,16.43
2018-08-16T01:32:05.072Z,11.43
2018-08-16T01:34:33.523Z,12.77
2018-08-16T01:37:01.556Z,17.00
2018-08-16T01:39:29.598Z,14.20
2018-08-16T01:41:57.650Z,12.57
2018-08-16T01:44:25.734Z,11.10
2018-08-16T01:46:54.079Z,18.27
2018-08-16T01:49:29.673Z,15.53
2018-08-16T01:51:57.906Z,12.47
2018-08-16T01:54:26.329Z,14.50
2018-08-16T01:56:54.430Z,11.80
2018-08-16T01:59:22.492Z,15.03
2018-08-16T02:01:51.046Z,16.87
2018-08-16T02:04:19.127Z,14.30
2018-08-16T02:06:47.706Z,14.27
2018-08-16T02:09:15.757Z,12.60
2018-08-16T02:11:43.827Z,21.50
2018-08-16T02:14:11.898Z,17.10
2018-08-16T02:16:40.089Z,16.47
2018-08-16T02:19:08.364Z,14.33
2018-08-16T02:21:36.841Z,15.80
2018-08-16T02:24:05.250Z,14.47
2018-08-16T02:26:33.485Z,17.33
2018-08-16T02:29:01.778Z,13.57
2018-08-16T02:31:29.847Z,18.73
2018-08-16T02:33:57.915Z,14.70
2018-08-16T02:36:26.399Z,19.13
2018-08-16T02:38:54.769Z,13.60
2018-08-16T02:41:22.849Z,12.63
2018-08-16T02:43:50.917Z,17.77
2018-08-16T02:46:18.974Z,15.10
2018-08-16T02:48:47.034Z,21.03
2018-08-16T02:51:15.287Z,14.67
2018-08-16T02:53:43.411Z,14.07
2018-08-16T02:56:11.473Z,11.43
2018-08-16T02:58:39.506Z,13.57
2018-08-16T03:01:07.584Z,22.30
2018-08-16T03:03:35.626Z,15.40
2018-08-16T03:06:03.732Z,12.47
2018-08-16T03:08:31.762Z,18.47
2018-08-16T03:10:59.828Z,13.50
2018-08-16T03:13:27.890Z,13.43
2018-08-16T03:15:55.941Z,21.73
2018-08-16T03:18:23.985Z,16.30
2018-08-16T03:20:52.137Z,13.37
2018-08-16T03:23:20.177Z,19.97
2018-08-16T03:25:48.233Z,12.43
2018-08-16T03:28:16.290Z,13.47
2018-08-16T03:30:44.363Z,13.27
2018-08-16T03:33:12.432Z,14.70
2018-08-16T03:35:40.481Z,14.17
2018-08-16T03:38:08.530Z,19.10
2018-08-16T03:40:36.598Z,15.10
2018-08-16T03:43:04.799Z,16.03
2018-08-16T03:45:32.861Z,17.87
2018-08-16T03:48:01.249Z,23.37
2018-08-16T03:50:29.499Z,15.87
2018-08-16T03:52:57.581Z,17.27
2018-08-16T03:55:25.792Z,14.17
2018-08-16T03:57:53.833Z,14.00
2018-08-16T04:00:21.896Z,14.20
2018-08-16T04:02:49.945Z,20.67
2018-08-16T04:05:18.226Z,19.53
2018-08-16T04:07:46.269Z,14.90
2018-08-16T04:10:14.321Z,18.27
2018-08-16T04:12:42.373Z,32.73
2018-08-16T04:15:10.444Z,20.00
2018-08-16T04:17:38.528Z,17.03
2018-08-16T04:20:07.030Z,19.50
2018-08-16T04:22:35.725Z,17.77
2018-08-16T04:25:04.317Z,21.10
2018-08-16T04:27:32.591Z,22.40
2018-08-16T04:30:02.573Z,22.10
2018-08-16T04:32:30.657Z,15.03
2018-08-16T04:34:59.066Z,22.10
2018-08-16T04:37:27.127Z,18.43
2018-08-16T04:39:55.224Z,24.30
2018-08-16T04:42:23.285Z,17.00
2018-08-16T04:44:51.341Z,19.27
2018-08-16T04:47:19.417Z,15.20
2018-08-16T04:49:47.482Z,17.10
2018-08-16T04:52:15.546Z,16.07
2018-08-16T04:54:43.606Z,25.03
2018-08-16T04:57:11.681Z,15.30
2018-08-16T04:59:39.738Z,21.57
2018-08-16T05:02:07.789Z,17.53
2018-08-16T05:04:35.896Z,21.60
2018-08-16T05:07:03.973Z,22.53
2018-08-16T05:09:32.037Z,21.20
2018-08-16T05:12:00.114Z,17.13
2018-08-16T05:14:28.190Z,17.47
2018-08-16T05:16:56.275Z,15.97
2018-08-16T05:19:24.342Z,19.57
2018-08-16T05:21:52.404Z,19.40
2018-08-16T05:24:21.318Z,27.87
2018-08-16T05:26:49.588Z,22.73
2018-08-16T05:29:17.653Z,17.00
2018-08-16T05:31:45.765Z,22.30
2018-08-16T05:34:13.771Z,26.33
2018-08-16T05:36:41.816Z,21.47
2018-08-16T05:39:11.921Z,21.27
2018-08-16T05:41:40.120Z,16.10
2018-08-16T05:44:08.477Z,23.07
2018-08-16T05:46:36.584Z,17.90
2018-08-16T05:49:04.661Z,17.63
2018-08-16T05:51:32.733Z,27.63
2018-08-16T05:54:00.798Z,18.90
2018-08-16T05:56:28.896Z,24.33
2018-08-16T05:58:56.936Z,27.97
2018-08-16T06:01:25.041Z,35.87
2018-08-16T06:03:53.133Z,29.13
2018-08-16T06:06:22.780Z,32.40
2018-08-16T06:08:50.829Z,33.43
2018-08-16T06:11:19.085Z,30.83
2018-08-16T06:13:47.301Z,24.90
2018-08-16T06:16:15.523Z,28.00
2018-08-16T06:18:43.601Z,23.83
2018-08-16T06:21:11.697Z,20.20
2018-08-16T06:23:39.762Z,26.67
2018-08-16T06:26:07.806Z,28.70
2018-08-16T06:28:35.878Z,23.23
2018-08-16T06:31:04.046Z,24.73
2018-08-16T06:33:32.230Z,22.70
2018-08-16T06:36:00.299Z,29.33
2018-08-16T06:38:28.366Z,21.13
2018-08-16T06:40:56.629Z,23.30
2018-08-16T06:43:24.716Z,29.63
2018-08-16T06:45:52.794Z,27.40
2018-08-16T06:48:20.880Z,23.00
2018-08-16T06:50:48.929Z,16.63
2018-08-16T06:53:16.990Z,24.73
2018-08-16T06:55:45.029Z,31.77
2018-08-16T06:58:13.103Z,26.70
2018-08-16T07:00:41.227Z,25.80
2018-08-16T07:03:09.577Z,17.63
2018-08-16T07:05:37.718Z,21.17
2018-08-16T07:08:06.281Z,30.93
2018-08-16T07:10:35.505Z,49.50
2018-08-16T07:13:03.566Z,43.77
2018-08-16T07:15:31.617Z,36.60
2018-08-16T07:17:59.709Z,29.90
2018-08-16T07:20:27.783Z,21.00
2018-08-16T07:22:55.889Z,16.07
2018-08-16T07:25:23.933Z,26.30
2018-08-16T07:27:52.029Z,32.23
2018-08-16T07:30:20.089Z,31.77
2018-08-16T07:32:48.148Z,18.77
2018-08-16T07:35:16.212Z,27.57
2018-08-16T07:37:44.284Z,17.27
2018-08-16T07:40:12.709Z,23.00
2018-08-16T07:42:40.763Z,19.90
2018-08-16T07:45:10.082Z,20.80
2018-08-16T07:47:38.305Z,34.17
2018-08-16T07:50:08.114Z,21.30
2018-08-16T07:52:36.191Z,45.33
2018-08-16T07:55:04.598Z,31.33
2018-08-16T07:57:32.673Z,25.50
2018-08-16T08:00:00.720Z,53.77
2018-08-16T08:02:28.765Z,46.90
2018-08-16T08:04:56.833Z,46.73
2018-08-16T08:07:24.911Z,38.63
2018-08-16T08:09:53.105Z,45.93
2018-08-16T08:12:21.025Z,40.53
2018-08-16T08:14:49.073Z,30.20
2018-08-16T08:17:17.135Z,28.40
2018-08-16T08:19:45.202Z,30.83
2018-08-16T08:22:13.922Z,50.20
2018-08-16T08:24:41.994Z,32.27
2018-08-16T08:27:10.142Z,47.30
2018-08-16T08:29:38.201Z,28.60
2018-08-16T08:32:06.593Z,38.23
2018-08-16T08:34:37.391Z,32.20
2018-08-16T08:37:17.912Z,32.13
2018-08-16T08:39:45.978Z,25.23
2018-08-16T08:42:14.715Z,39.27
2018-08-16T08:44:42.772Z,33.03
2018-08-16T08:47:10.829Z,33.33
2018-08-16T08:49:38.925Z,33.43
2018-08-16T08:52:06.966Z,33.20
2018-08-16T08:54:51.677Z,28.60
2018-08-16T08:57:31.970Z,40.20
2018-08-16T09:00:00.036Z,28.03
2018-08-16T09:02:28.102Z,23.63
2018-08-16T09:04:56.178Z,26.10
2018-08-16T09:07:24.654Z,21.30
2018-08-16T09:11:07.638Z,23.30
2018-08-16T09:13:47.126Z,25.90
2018-08-16T09:16:22.069Z,22.53
2018-08-16T09:18:50.166Z,24.33
2018-08-16T09:21:18.277Z,22.20
2018-08-16T09:23:46.479Z,18.73
2018-08-16T09:26:19.937Z,21.37
2018-08-16T09:28:47.995Z,19.03
2018-08-16T09:31:27.730Z,20.00
2018-08-16T09:34:19.721Z,16.80
2018-08-16T09:36:47.806Z,31.03
2018-08-16T09:39:15.903Z,13.07
2018-08-16T09:41:43.901Z,24.70
2018-08-16T09:44:11.938Z,14.47
2018-08-16T09:46:55.457Z,16.90
2018-08-16T09:49:23.497Z,12.20
2018-08-16T09:51:51.579Z,11.27
2018-08-16T09:54:19.624Z,10.77
2018-08-16T09:56:48.137Z,10.43
2018-08-16T09:59:16.624Z,11.90
2018-08-16T10:01:44.686Z,11.80
2018-08-16T10:04:12.811Z,13.30
2018-08-16T10:06:41.751Z,11.83
2018-08-16T10:09:11.744Z,8.43
2018-08-16T10:11:39.822Z,12.33
2018-08-16T10:14:07.890Z,8.50
2018-08-16T10:16:36.270Z,9.40
2018-08-16T10:19:04.615Z,8.93
2018-08-16T10:21:32.658Z,9.83
2018-08-16T10:24:00.785Z,9.37
2018-08-16T10:26:28.849Z,7.30
2018-08-16T10:28:56.921Z,10.90
2018-08-16T10:31:24.969Z,10.80
2018-08-16T10:33:53.229Z,7.80
2018-08-16T10:36:21.453Z,5.97
2018-08-16T10:38:49.530Z,9.20
2018-08-16T10:41:17.590Z,6.80
2018-08-16T10:43:45.665Z,9.23
2018-08-16T10:46:13.726Z,8.67
2018-08-16T10:48:41.801Z,10.00
2018-08-16T10:51:09.902Z,8.73
2018-08-16T10:53:37.971Z,8.53
2018-08-16T10:56:06.356Z,9.40
2018-08-16T10:58:34.473Z,19.00
2018-08-16T11:01:02.590Z,9.93
2018-08-16T11:03:30.985Z,7.43
2018-08-16T11:05:59.154Z,13.47
2018-08-16T11:08:27.214Z,6.83
2018-08-16T11:10:55.276Z,13.27
2018-08-16T11:13:23.368Z,8.30
2018-08-16T11:15:51.417Z,11.57
2018-08-16T11:18:19.487Z,6.90
2018-08-16T11:20:47.530Z,6.73
2018-08-16T11:23:15.696Z,8.43
2018-08-16T11:25:43.852Z,11.30
2018-08-16T11:28:11.897Z,9.73
2018-08-16T11:30:39.994Z,6.27
2018-08-16T11:33:08.530Z,5.33
2018-08-16T11:35:36.586Z,10.57
2018-08-16T11:38:04.749Z,8.90
2018-08-16T11:40:32.837Z,11.13
2018-08-16T11:43:00.891Z,6.23
2018-08-16T11:45:29.209Z,7.40
2018-08-16T11:47:57.257Z,6.77
2018-08-16T11:50:25.336Z,7.27
2018-08-16T11:52:53.374Z,6.00
2018-08-16T11:55:21.438Z,13.33
2018-08-16T11:57:49.509Z,8.57
2018-08-16T12:00:17.581Z,10.70
2018-08-16T12:02:45.662Z,7.50
2018-08-16T12:05:14.375Z,7.00
2018-08-16T12:07:42.683Z,6.50
2018-08-16T12:10:10.783Z,7.67
2018-08-16T12:12:38.826Z,6.10
2018-08-16T12:15:07.907Z,9.90
2018-08-16T12:17:35.943Z,11.03
2018-08-16T12:20:04.890Z,9.83
2018-08-16T12:22:32.975Z,5.07
2018-08-16T12:25:01.018Z,7.93
2018-08-16T12:27:30.104Z,10.93
2018-08-16T12:29:58.162Z,10.90
2018-08-16T12:32:26.422Z,9.83
2018-08-16T12:34:54.537Z,6.00
2018-08-16T12:37:22.558Z,9.07
2018-08-16T12:39:50.609Z,7.30
2018-08-16T12:42:18.742Z,11.07
2018-08-16T12:44:46.750Z,7.50
2018-08-16T12:47:16.080Z,7.80
2018-08-16T12:49:44.149Z,8.67
2018-08-16T12:52:12.210Z,12.03
2018-08-16T12:54:40.343Z,12.37
2018-08-16T12:57:08.401Z,11.90
2018-08-16T12:59:36.470Z,9.73
2018-08-16T13:02:04.537Z,5.70
2018-08-16T13:04:32.594Z,7.73
2018-08-16T13:07:00.642Z,5.27
2018-08-16T13:09:28.757Z,8.47
2018-08-16T13:11:56.823Z,9.30
2018-08-16T13:14:24.878Z,8.80
2018-08-16T13:16:53.657Z,7.70
2018-08-16T13:19:21.794Z,8.33
2018-08-16T13:21:49.894Z,7.10
2018-08-16T13:24:17.946Z,6.87
2018-08-16T13:26:46.013Z,7.87
2018-08-16T13:29:14.185Z,8.20
2018-08-16T13:31:42.257Z,8.57
2018-08-16T13:34:10.358Z,13.30
2018-08-16T13:36:38.439Z,8.40
2018-08-16T13:39:09.565Z,11.10
2018-08-16T13:41:37.753Z,10.73
2018-08-16T13:44:05.972Z,4.90
2018-08-16T13:46:34.414Z,12.93
2018-08-16T13:49:02.494Z,7.23
2018-08-16T13:51:30.577Z,7.30
2018-08-16T13:53:58.626Z,6.47
2018-08-16T13:56:26.686Z,8.40
2018-08-16T13:58:54.732Z,8.10
2018-08-16T14:01:22.860Z,4.90
2018-08-16T14:03:51.050Z,6.57
2018-08-16T14:06:19.100Z,5.40
2018-08-16T14:08:47.190Z,12.53
2018-08-16T14:11:15.287Z,8.03
2018-08-16T14:13:43.334Z,3.73
2018-08-16T14:16:11.400Z,9.80
2018-08-16T14:18:39.483Z,8.27
2018-08-16T14:21:07.856Z,16.07
2018-08-16T14:23:35.901Z,6.97
2018-08-16T14:26:03.984Z,5.00
2018-08-16T14:28:32.033Z,5.20
2018-08-16T14:31:00.318Z,10.23
2018-08-16T14:33:28.396Z,6.93
2018-08-16T14:35:56.483Z,5.70
2018-08-16T14:38:24.529Z,5.30
2018-08-16T14:40:52.885Z,5.20
2018-08-16T14:43:20.955Z,4.20
2018-08-16T14:45:49.053Z,4.20
2018-08-16T14:50:51.657Z,6.87
2018-08-16T14:53:19.722Z,7.80
2018-08-16T14:55:47.781Z,4.70
2018-08-16T14:58:22.464Z,8.47
2018-08-16T15:00:50.510Z,5.80
2018-08-16T15:03:18.558Z,4.87
2018-08-16T15:05:46.597Z,4.87
2018-08-16T15:08:14.674Z,8.73
2018-08-16T15:10:42.787Z,5.40
2018-08-16T15:13:10.812Z,8.30
2018-08-16T15:15:38.871Z,11.23
2018-08-16T15:18:06.986Z,5.13
2018-08-16T15:20:35.038Z,6.90
2018-08-16T15:23:03.118Z,5.30
2018-08-16T15:25:31.385Z,20.87
2018-08-16T15:27:59.448Z,3.73
2018-08-16T15:30:27.533Z,3.73
2018-08-16T15:32:55.589Z,9.83
2018-08-16T15:35:23.634Z,6.07
2018-08-16T15:37:51.822Z,7.97
2018-08-16T15:40:20.098Z,7.97
2018-08-16T15:42:48.156Z,4.37
2018-08-16T15:45:16.197Z,4.70
2018-08-16T15:47:44.252Z,4.03
2018-08-16T15:50:12.309Z,6.00
2018-08-16T15:52:40.403Z,7.90
2018-08-16T15:55:08.468Z,4.17
2018-08-16T15:57:36.521Z,9.27
2018-08-16T16:00:05.434Z,4.67
2018-08-16T16:02:33.494Z,5.43
2018-08-16T16:05:01.540Z,9.33
2018-08-16T16:07:29.606Z,4.20
2018-08-16T16:09:57.670Z,6.17
2018-08-16T16:12:25.763Z,7.40
2018-08-16T16:14:53.809Z,9.30
2018-08-16T16:17:21.964Z,8.50
2018-08-16T16:19:49.905Z,8.93
2018-08-16T16:22:18.014Z,3.60
2018-08-16T16:24:46.099Z,4.03
2018-08-16T16:27:14.134Z,5.97
2018-08-16T16:29:42.195Z,6.77
2018-08-16T16:32:10.929Z,4.80
2018-08-16T16:34:38.984Z,5.40
2018-08-16T16:37:07.449Z,5.87
2018-08-16T16:39:35.505Z,5.83
2018-08-16T16:42:03.561Z,14.17
2018-08-16T16:44:31.630Z,7.33
2018-08-16T16:46:59.702Z,11.00
2018-08-16T16:49:27.767Z,6.80
2018-08-16T16:51:55.809Z,9.57
2018-08-16T16:54:23.873Z,9.33
2018-08-16T16:56:52.144Z,8.50
2018-08-16T16:59:20.203Z,12.17
2018-08-16T17:01:48.253Z,6.27
2018-08-16T17:04:16.474Z,7.33
2018-08-16T17:06:44.458Z,18.13
2018-08-16T17:09:13.787Z,7.80
2018-08-16T17:11:42.394Z,8.83
2018-08-16T17:14:10.685Z,6.40
2018-08-16T17:16:38.739Z,15.40
2018-08-16T17:19:06.852Z,13.03
2018-08-16T17:21:34.950Z,11.50
2018-08-16T17:24:03.002Z,10.30
2018-08-16T17:26:31.268Z,16.93
2018-08-16T17:28:59.276Z,6.80
2018-08-16T17:31:27.382Z,15.50
2018-08-16T17:33:55.405Z,11.67
2018-08-16T17:36:23.457Z,14.73
2018-08-16T17:38:51.551Z,9.67
2018-08-16T17:41:19.611Z,13.53
2018-08-16T17:43:47.653Z,13.67
2018-08-16T17:46:15.729Z,11.13
2018-08-16T17:48:44.536Z,8.80
2018-08-16T17:51:13.563Z,13.33
2018-08-16T17:53:41.839Z,10.30
2018-08-16T17:56:09.988Z,14.53
2018-08-16T17:58:38.929Z,13.63
2018-08-16T18:01:07.040Z,12.73
2018-08-16T18:03:35.769Z,15.60
2018-08-16T18:06:04.086Z,15.03
2018-08-16T18:08:32.373Z,13.83
2018-08-16T18:11:00.414Z,14.80
2018-08-16T18:13:28.472Z,17.50
2018-08-16T18:15:56.549Z,17.20
2018-08-16T18:18:24.610Z,15.67
2018-08-16T18:20:52.657Z,18.43
2018-08-16T18:23:20.869Z,20.43
2018-08-16T18:25:48.923Z,18.30
2018-08-16T18:28:17.364Z,18.47
2018-08-16T18:30:45.473Z,19.43
2018-08-16T18:33:13.545Z,14.20
2018-08-16T18:35:41.590Z,14.00
2018-08-16T18:38:09.886Z,18.00
2018-08-16T18:40:38.713Z,20.63
2018-08-16T18:43:06.818Z,16.10
2018-08-16T18:45:34.850Z,16.93
2018-08-16T18:48:02.954Z,19.73
2018-08-16T18:50:31.002Z,18.17
2018-08-16T18:52:59.057Z,16.73
2018-08-16T18:55:27.169Z,21.00
2018-08-16T18:57:55.228Z,17.63
2018-08-16T19:00:23.283Z,19.87
2018-08-16T19:02:51.345Z,18.13
2018-08-16T19:05:19.463Z,20.00
2018-08-16T19:07:47.487Z,35.17
2018-08-16T19:10:15.557Z,28.03
2018-08-16T19:12:43.629Z,24.57
2018-08-16T19:15:11.686Z,26.17
2018-08-16T19:17:39.770Z,22.60
2018-08-16T19:20:08.257Z,21.97
2018-08-16T19:22:36.313Z,18.93
2018-08-16T19:25:05.562Z,27.73
2018-08-16T19:27:33.683Z,16.33
2018-08-16T19:30:02.795Z,18.13
2018-08-16T19:32:31.310Z,19.60
2018-08-16T19:34:59.377Z,24.83
2018-08-16T19:37:27.425Z,20.47
2018-08-16T19:39:55.497Z,16.93
2018-08-16T19:42:23.562Z,16.43
2018-08-16T19:44:51.618Z,16.87
2018-08-16T19:47:19.697Z,22.03
2018-08-16T19:49:47.749Z,20.93
2018-08-16T19:52:15.958Z,25.13
2018-08-16T19:54:44.550Z,19.47
2018-08-16T19:57:12.626Z,25.43
2018-08-16T19:59:40.698Z,18.57
2018-08-16T20:02:08.778Z,21.23
2018-08-16T20:04:36.909Z,16.23
2018-08-16T20:07:06.610Z,23.63
2018-08-16T20:09:34.672Z,23.23
2018-08-16T20:12:02.724Z,22.73
2018-08-16T20:14:30.938Z,28.53
2018-08-16T20:16:58.996Z,21.73
2018-08-16T20:19:27.093Z,24.13
2018-08-16T20:21:55.125Z,17.10
2018-08-16T20:24:23.516Z,24.67
2018-08-16T20:26:51.549Z,20.63
2018-08-16T20:29:19.602Z,20.73
2018-08-16T20:31:47.835Z,19.90
2018-08-16T20:34:15.886Z,18.13
2018-08-16T20:36:43.930Z,21.03
2018-08-16T20:39:13.913Z,26.40
2018-08-16T20:41:42.118Z,19.10
2018-08-16T20:44:10.385Z,18.73
2018-08-16T20:46:38.449Z,20.40
2018-08-16T20:49:06.501Z,19.97
2018-08-16T20:51:34.561Z,19.90
2018-08-16T20:54:02.632Z,30.60
2018-08-16T20:56:30.685Z,20.67
2018-08-16T20:58:58.806Z,19.67
2018-08-16T21:01:26.862Z,24.07
2018-08-16T21:03:54.912Z,20.20
2018-08-16T21:06:22.982Z,21.27
2018-08-16T21:08:51.038Z,20.77
2018-08-16T21:11:19.089Z,17.13
2018-08-16T21:13:47.158Z,16.93
2018-08-16T21:16:15.254Z,20.20
2018-08-16T21:18:43.330Z,21.50
2018-08-16T21:21:12.358Z,21.63
2018-08-16T21:23:40.400Z,15.83
2018-08-16T21:26:08.449Z,22.47
2018-08-16T21:28:36.507Z,25.57
2018-08-16T21:31:04.572Z,22.47
2018-08-16T21:33:32.633Z,16.87
2018-08-16T21:36:00.694Z,14.87
2018-08-16T21:38:28.736Z,19.20
2018-08-16T21:40:56.774Z,19.83
2018-08-16T21:43:24.833Z,14.97
2018-08-16T21:45:52.871Z,16.83
2018-08-16T21:48:20.936Z,16.93
2018-08-16T21:50:49.195Z,16.07
2018-08-16T21:53:17.241Z,16.67
2018-08-16T21:55:45.295Z,14.37
2018-08-16T21:58:13.363Z,15.50
2018-08-16T22:00:51.430Z,16.07
2018-08-16T22:03:21.708Z,19.80
2018-08-16T22:05:56.662Z,15.53
2018-08-16T22:08:26.305Z,18.37
2018-08-16T22:10:54.362Z,12.73
2018-08-16T22:13:22.417Z,15.10
2018-08-16T22:15:50.449Z,16.70
2018-08-16T22:18:18.525Z,14.70
2018-08-16T22:20:46.583Z,14.50
2018-08-16T22:23:14.658Z,18.20
2018-08-16T22:25:42.736Z,22.23
2018-08-16T22:28:11.272Z,18.20
2018-08-16T22:30:39.305Z,18.70
2018-08-16T22:33:07.684Z,17.37
2018-08-16T22:35:35.709Z,17.40
2018-08-16T22:38:03.762Z,19.20
2018-08-16T22:40:31.830Z,16.17
2018-08-16T22:42:59.876Z,17.90
2018-08-16T22:45:27.924Z,19.13
2018-08-16T22:47:55.975Z,19.37
2018-08-16T22:50:24.033Z,19.13
2018-08-16T22:52:52.628Z,26.83
2018-08-16T22:55:20.685Z,21.60
2018-08-16T22:57:48.745Z,19.50
2018-08-16T23:00:16.988Z,24.80
2018-08-16T23:02:45.038Z,19.57
2018-08-16T23:05:13.194Z,18.20
2018-08-16T23:07:41.249Z,19.63
2018-08-16T23:10:09.301Z,32.27
2018-08-16T23:12:37.359Z,19.63
2018-08-16T23:15:05.813Z,23.47
2018-08-16T23:17:33.880Z,25.43
2018-08-16T23:20:01.918Z,21.90
2018-08-16T23:22:29.990Z,31.67
2018-08-16T23:24:58.033Z,21.20
2018-08-16T23:27:26.093Z,27.70
2018-08-16T23:29:54.149Z,23.17
2018-08-16T23:32:22.222Z,21.53
2018-08-16T23:34:50.289Z,22.97
2018-08-16T23:37:18.341Z,22.87
2018-08-16T23:39:46.605Z,21.70
2018-08-16T23:42:14.669Z,23.43
2018-08-16T23:44:42.731Z,30.37
2018-08-16T23:47:10.896Z,30.83
2018-08-16T23:49:39.002Z,33.53
2018-08-16T23:52:07.057Z,25.10
2018-08-16T23:54:35.100Z,31.73
2018-08-16T23:57:03.185Z,22.53
2018-08-16T23:59:31.245Z,24.27
